sensor_id;sensor_type;location;lat;lon;timestamp;temperature;humidity
22192;DHT22;11261;52.456;10.850;2023-08-07T00:01:28;16.90;99.90
22192;DHT22;11261;52.456;10.850;2023-08-07T00:03:56;17.00;99.90
22192;DHT22;11261;52.456;10.850;2023-08-07T00:06:25;16.80;99.90
22192;DHT22;11261;52.456;10.850;2023-08-07T00:08:53;16.70;99.90
22192;DHT22;11261;52.456;10.850;2023-08-07T00:11:22;16.60;99.90
22192;DHT22;11261;52.456;10.850;2023-08-07T00:13:51;16.60;99.90
22192;DHT22;11261;52.456;10.850;2023-08-07T00:16:20;16.60;99.90
22192;DHT22;11261;52.456;10.850;2023-08-07T00:18:48;16.60;99.90
22192;DHT22;11261;52.456;10.850;2023-08-07T00:21:16;16.60;99.90
22192;DHT22;11261;52.456;10.850;2023-08-07T00:23:45;16.50;99.90
22192;DHT22;11261;52.456;10.850;2023-08-07T00:26:13;16.40;99.90
22192;DHT22;11261;52.456;10.850;2023-08-07T00:28:41;16.50;99.90
22192;DHT22;11261;52.456;10.850;2023-08-07T00:31:11;16.40;99.90
22192;DHT22;11261;52.456;10.850;2023-08-07T00:33:40;16.30;99.90
22192;DHT22;11261;52.456;10.850;2023-08-07T00:36:08;16.40;99.90
22192;DHT22;11261;52.456;10.850;2023-08-07T00:38:36;16.40;99.90
22192;DHT22;11261;52.456;10.850;2023-08-07T00:41:05;16.30;99.90
22192;DHT22;11261;52.456;10.850;2023-08-07T00:43:34;16.40;99.90
22192;DHT22;11261;52.456;10.850;2023-08-07T00:46:02;16.30;99.90
22192;DHT22;11261;52.456;10.850;2023-08-07T00:48:32;16.20;99.90
22192;DHT22;11261;52.456;10.850;2023-08-07T00:51:02;16.10;99.90
22192;DHT22;11261;52.456;10.850;2023-08-07T00:53:31;16.10;99.90
22192;DHT22;11261;52.456;10.850;2023-08-07T00:55:59;16.20;99.90
22192;DHT22;11261;52.456;10.850;2023-08-07T00:58:29;16.10;99.90
22192;DHT22;11261;52.456;10.850;2023-08-07T01:00:58;16.10;99.90
22192;DHT22;11261;52.456;10.850;2023-08-07T01:03:26;16.10;99.90
22192;DHT22;11261;52.456;10.850;2023-08-07T01:05:56;16.00;99.90
22192;DHT22;11261;52.456;10.850;2023-08-07T01:08:25;16.10;99.90
22192;DHT22;11261;52.456;10.850;2023-08-07T01:11:10;16.10;99.90
22192;DHT22;11261;52.456;10.850;2023-08-07T01:13:49;16.00;99.90
22192;DHT22;11261;52.456;10.850;2023-08-07T01:16:28;16.00;99.90
22192;DHT22;11261;52.456;10.850;2023-08-07T01:18:57;16.00;99.90
22192;DHT22;11261;52.456;10.850;2023-08-07T01:21:29;16.00;99.90
22192;DHT22;11261;52.456;10.850;2023-08-07T01:23:59;16.10;99.90
22192;DHT22;11261;52.456;10.850;2023-08-07T01:26:27;16.00;99.90
22192;DHT22;11261;52.456;10.850;2023-08-07T01:29:02;15.90;99.90
22192;DHT22;11261;52.456;10.850;2023-08-07T01:31:34;15.90;99.90
22192;DHT22;11261;52.456;10.850;2023-08-07T01:34:05;15.80;99.90
22192;DHT22;11261;52.456;10.850;2023-08-07T01:36:35;15.80;99.90
22192;DHT22;11261;52.456;10.850;2023-08-07T01:39:08;15.90;99.90
22192;DHT22;11261;52.456;10.850;2023-08-07T01:41:37;15.90;99.90
22192;DHT22;11261;52.456;10.850;2023-08-07T01:44:05;15.90;99.90
22192;DHT22;11261;52.456;10.850;2023-08-07T01:46:33;15.80;99.90
22192;DHT22;11261;52.456;10.850;2023-08-07T01:49:02;15.70;99.90
22192;DHT22;11261;52.456;10.850;2023-08-07T01:51:30;15.90;99.90
22192;DHT22;11261;52.456;10.850;2023-08-07T01:53:59;15.90;99.90
22192;DHT22;11261;52.456;10.850;2023-08-07T01:56:28;15.70;99.90
22192;DHT22;11261;52.456;10.850;2023-08-07T01:58:57;15.80;99.90
22192;DHT22;11261;52.456;10.850;2023-08-07T02:01:25;15.70;99.90
22192;DHT22;11261;52.456;10.850;2023-08-07T02:03:53;15.70;99.90
22192;DHT22;11261;52.456;10.850;2023-08-07T02:06:22;15.70;99.90
22192;DHT22;11261;52.456;10.850;2023-08-07T02:08:50;15.60;99.90
22192;DHT22;11261;52.456;10.850;2023-08-07T02:11:18;15.60;99.90
22192;DHT22;11261;52.456;10.850;2023-08-07T02:13:48;15.60;99.90
22192;DHT22;11261;52.456;10.850;2023-08-07T02:16:16;15.60;99.90
22192;DHT22;11261;52.456;10.850;2023-08-07T02:18:44;15.50;99.90
22192;DHT22;11261;52.456;10.850;2023-08-07T02:21:13;15.60;99.90
22192;DHT22;11261;52.456;10.850;2023-08-07T02:23:41;15.60;99.90
22192;DHT22;11261;52.456;10.850;2023-08-07T02:26:10;15.60;99.90
22192;DHT22;11261;52.456;10.850;2023-08-07T02:28:38;15.50;99.90
22192;DHT22;11261;52.456;10.850;2023-08-07T02:31:08;15.60;99.90
22192;DHT22;11261;52.456;10.850;2023-08-07T02:33:36;15.60;99.90
22192;DHT22;11261;52.456;10.850;2023-08-07T02:36:04;15.60;99.90
22192;DHT22;11261;52.456;10.850;2023-08-07T02:38:33;15.50;99.90
22192;DHT22;11261;52.456;10.850;2023-08-07T02:41:01;15.50;99.90
22192;DHT22;11261;52.456;10.850;2023-08-07T02:43:30;15.60;99.90
22192;DHT22;11261;52.456;10.850;2023-08-07T02:46:00;15.60;99.90
22192;DHT22;11261;52.456;10.850;2023-08-07T02:48:29;15.50;99.90
22192;DHT22;11261;52.456;10.850;2023-08-07T02:50:58;15.60;99.90
22192;DHT22;11261;52.456;10.850;2023-08-07T02:53:26;15.60;99.90
22192;DHT22;11261;52.456;10.850;2023-08-07T02:55:54;15.60;99.90
22192;DHT22;11261;52.456;10.850;2023-08-07T02:58:23;15.60;99.90
22192;DHT22;11261;52.456;10.850;2023-08-07T03:00:51;15.70;99.90
22192;DHT22;11261;52.456;10.850;2023-08-07T03:03:19;15.70;99.90
22192;DHT22;11261;52.456;10.850;2023-08-07T03:05:50;15.70;99.90
22192;DHT22;11261;52.456;10.850;2023-08-07T03:08:18;15.70;99.90
22192;DHT22;11261;52.456;10.850;2023-08-07T03:10:51;15.70;99.90
22192;DHT22;11261;52.456;10.850;2023-08-07T03:13:19;15.70;99.90
22192;DHT22;11261;52.456;10.850;2023-08-07T03:15:47;15.70;99.90
22192;DHT22;11261;52.456;10.850;2023-08-07T03:18:17;15.70;99.90
22192;DHT22;11261;52.456;10.850;2023-08-07T03:20:45;15.80;99.90
22192;DHT22;11261;52.456;10.850;2023-08-07T03:23:15;15.80;99.90
22192;DHT22;11261;52.456;10.850;2023-08-07T03:25:43;15.80;99.90
22192;DHT22;11261;52.456;10.850;2023-08-07T03:28:12;15.70;99.90
22192;DHT22;11261;52.456;10.850;2023-08-07T03:30:40;15.80;99.90
22192;DHT22;11261;52.456;10.850;2023-08-07T03:33:09;15.80;99.90
22192;DHT22;11261;52.456;10.850;2023-08-07T03:35:37;15.80;99.90
22192;DHT22;11261;52.456;10.850;2023-08-07T03:38:06;15.80;99.90
22192;DHT22;11261;52.456;10.850;2023-08-07T03:40:35;15.80;99.90
22192;DHT22;11261;52.456;10.850;2023-08-07T03:43:03;15.80;99.90
22192;DHT22;11261;52.456;10.850;2023-08-07T03:45:32;15.80;99.90
22192;DHT22;11261;52.456;10.850;2023-08-07T03:48:00;15.90;99.90
22192;DHT22;11261;52.456;10.850;2023-08-07T03:50:28;15.80;99.90
22192;DHT22;11261;52.456;10.850;2023-08-07T03:52:57;15.90;99.90
22192;DHT22;11261;52.456;10.850;2023-08-07T03:55:25;16.00;99.90
22192;DHT22;11261;52.456;10.850;2023-08-07T03:57:55;15.90;99.90
22192;DHT22;11261;52.456;10.850;2023-08-07T04:00:23;15.90;99.90
22192;DHT22;11261;52.456;10.850;2023-08-07T04:02:52;15.90;99.90
22192;DHT22;11261;52.456;10.850;2023-08-07T04:05:20;15.90;99.90
22192;DHT22;11261;52.456;10.850;2023-08-07T04:07:48;15.90;99.90
22192;DHT22;11261;52.456;10.850;2023-08-07T04:10:17;15.80;99.90
22192;DHT22;11261;52.456;10.850;2023-08-07T04:12:46;15.90;99.90
22192;DHT22;11261;52.456;10.850;2023-08-07T04:15:16;15.90;99.90
22192;DHT22;11261;52.456;10.850;2023-08-07T04:17:44;15.90;99.90
22192;DHT22;11261;52.456;10.850;2023-08-07T04:20:13;15.90;99.90
22192;DHT22;11261;52.456;10.850;2023-08-07T04:22:41;15.90;99.90
22192;DHT22;11261;52.456;10.850;2023-08-07T04:25:11;15.90;99.90
22192;DHT22;11261;52.456;10.850;2023-08-07T04:27:40;15.90;99.90
22192;DHT22;11261;52.456;10.850;2023-08-07T04:30:09;15.90;99.90
22192;DHT22;11261;52.456;10.850;2023-08-07T04:32:39;15.90;99.90
22192;DHT22;11261;52.456;10.850;2023-08-07T04:35:08;15.90;99.90
22192;DHT22;11261;52.456;10.850;2023-08-07T04:37:36;15.90;99.90
22192;DHT22;11261;52.456;10.850;2023-08-07T04:40:08;15.80;99.90
22192;DHT22;11261;52.456;10.850;2023-08-07T04:42:37;15.90;99.90
22192;DHT22;11261;52.456;10.850;2023-08-07T04:45:06;15.90;99.90
22192;DHT22;11261;52.456;10.850;2023-08-07T04:47:34;15.90;99.90
22192;DHT22;11261;52.456;10.850;2023-08-07T04:50:04;15.90;99.90
22192;DHT22;11261;52.456;10.850;2023-08-07T04:52:33;15.90;99.90
22192;DHT22;11261;52.456;10.850;2023-08-07T04:55:01;15.80;99.90
22192;DHT22;11261;52.456;10.850;2023-08-07T04:57:30;15.80;99.90
22192;DHT22;11261;52.456;10.850;2023-08-07T04:59:58;15.80;99.90
22192;DHT22;11261;52.456;10.850;2023-08-07T05:02:26;15.80;99.90
22192;DHT22;11261;52.456;10.850;2023-08-07T05:04:55;15.80;99.90
22192;DHT22;11261;52.456;10.850;2023-08-07T05:07:24;15.80;99.90
22192;DHT22;11261;52.456;10.850;2023-08-07T05:09:53;15.90;99.90
22192;DHT22;11261;52.456;10.850;2023-08-07T05:12:21;15.80;99.90
22192;DHT22;11261;52.456;10.850;2023-08-07T05:14:49;15.80;99.90
22192;DHT22;11261;52.456;10.850;2023-08-07T05:17:18;15.80;99.90
22192;DHT22;11261;52.456;10.850;2023-08-07T05:19:46;15.80;99.90
22192;DHT22;11261;52.456;10.850;2023-08-07T05:22:15;15.70;99.90
22192;DHT22;11261;52.456;10.850;2023-08-07T05:24:45;15.80;99.90
22192;DHT22;11261;52.456;10.850;2023-08-07T05:27:16;15.70;99.90
22192;DHT22;11261;52.456;10.850;2023-08-07T05:29:44;15.70;99.90
22192;DHT22;11261;52.456;10.850;2023-08-07T05:32:13;15.70;99.90
22192;DHT22;11261;52.456;10.850;2023-08-07T05:34:42;15.80;99.90
22192;DHT22;11261;52.456;10.850;2023-08-07T05:37:11;15.70;99.90
22192;DHT22;11261;52.456;10.850;2023-08-07T05:39:39;15.80;99.90
22192;DHT22;11261;52.456;10.850;2023-08-07T05:42:09;15.80;99.90
22192;DHT22;11261;52.456;10.850;2023-08-07T05:44:39;15.70;99.90
22192;DHT22;11261;52.456;10.850;2023-08-07T05:47:07;15.70;99.90
22192;DHT22;11261;52.456;10.850;2023-08-07T05:49:35;15.70;99.90
22192;DHT22;11261;52.456;10.850;2023-08-07T05:52:04;15.60;99.90
22192;DHT22;11261;52.456;10.850;2023-08-07T05:54:33;15.60;99.90
22192;DHT22;11261;52.456;10.850;2023-08-07T05:57:01;15.70;99.90
22192;DHT22;11261;52.456;10.850;2023-08-07T05:59:31;15.70;99.90
22192;DHT22;11261;52.456;10.850;2023-08-07T06:02:02;15.70;99.90
22192;DHT22;11261;52.456;10.850;2023-08-07T06:04:31;15.70;99.90
22192;DHT22;11261;52.456;10.850;2023-08-07T06:06:59;15.70;99.90
22192;DHT22;11261;52.456;10.850;2023-08-07T06:09:27;15.70;99.90
22192;DHT22;11261;52.456;10.850;2023-08-07T06:11:56;15.70;99.90
22192;DHT22;11261;52.456;10.850;2023-08-07T06:14:25;15.70;99.90
22192;DHT22;11261;52.456;10.850;2023-08-07T06:16:54;15.60;99.90
22192;DHT22;11261;52.456;10.850;2023-08-07T06:19:25;15.70;99.90
22192;DHT22;11261;52.456;10.850;2023-08-07T06:21:58;15.70;99.90
22192;DHT22;11261;52.456;10.850;2023-08-07T06:24:27;15.70;99.90
22192;DHT22;11261;52.456;10.850;2023-08-07T06:26:55;15.70;99.90
22192;DHT22;11261;52.456;10.850;2023-08-07T06:29:23;15.70;99.90
22192;DHT22;11261;52.456;10.850;2023-08-07T06:31:53;15.80;99.90
22192;DHT22;11261;52.456;10.850;2023-08-07T06:34:22;15.80;99.90
22192;DHT22;11261;52.456;10.850;2023-08-07T06:36:50;15.70;99.90
22192;DHT22;11261;52.456;10.850;2023-08-07T06:39:19;15.70;99.90
22192;DHT22;11261;52.456;10.850;2023-08-07T06:41:47;15.70;99.90
22192;DHT22;11261;52.456;10.850;2023-08-07T06:44:15;15.70;99.90
22192;DHT22;11261;52.456;10.850;2023-08-07T06:46:43;15.70;99.90
22192;DHT22;11261;52.456;10.850;2023-08-07T06:49:13;15.70;99.90
22192;DHT22;11261;52.456;10.850;2023-08-07T06:51:41;15.70;99.90
22192;DHT22;11261;52.456;10.850;2023-08-07T06:54:10;15.70;99.90
22192;DHT22;11261;52.456;10.850;2023-08-07T06:56:38;15.70;99.90
22192;DHT22;11261;52.456;10.850;2023-08-07T06:59:09;15.70;99.90
22192;DHT22;11261;52.456;10.850;2023-08-07T07:01:37;15.60;99.90
22192;DHT22;11261;52.456;10.850;2023-08-07T07:04:05;15.60;99.90
22192;DHT22;11261;52.456;10.850;2023-08-07T07:06:37;15.50;99.90
22192;DHT22;11261;52.456;10.850;2023-08-07T07:09:05;15.50;99.90
22192;DHT22;11261;52.456;10.850;2023-08-07T07:11:34;15.50;99.90
22192;DHT22;11261;52.456;10.850;2023-08-07T07:14:02;15.50;99.90
22192;DHT22;11261;52.456;10.850;2023-08-07T07:16:30;15.50;99.90
22192;DHT22;11261;52.456;10.850;2023-08-07T07:18:58;15.40;99.90
22192;DHT22;11261;52.456;10.850;2023-08-07T07:21:27;15.40;99.90
22192;DHT22;11261;52.456;10.850;2023-08-07T07:23:56;15.40;99.90
22192;DHT22;11261;52.456;10.850;2023-08-07T07:26:24;15.50;99.90
22192;DHT22;11261;52.456;10.850;2023-08-07T07:28:52;15.50;99.90
22192;DHT22;11261;52.456;10.850;2023-08-07T07:31:21;15.50;99.90
22192;DHT22;11261;52.456;10.850;2023-08-07T07:33:49;15.50;99.90
22192;DHT22;11261;52.456;10.850;2023-08-07T07:36:18;15.60;99.90
22192;DHT22;11261;52.456;10.850;2023-08-07T07:38:47;15.60;99.90
22192;DHT22;11261;52.456;10.850;2023-08-07T07:41:17;15.60;99.90
22192;DHT22;11261;52.456;10.850;2023-08-07T07:43:46;15.70;99.90
22192;DHT22;11261;52.456;10.850;2023-08-07T07:46:15;15.80;99.90
22192;DHT22;11261;52.456;10.850;2023-08-07T07:48:43;15.90;99.90
22192;DHT22;11261;52.456;10.850;2023-08-07T07:51:11;15.90;99.90
22192;DHT22;11261;52.456;10.850;2023-08-07T07:53:39;16.00;99.90
22192;DHT22;11261;52.456;10.850;2023-08-07T07:56:08;16.60;99.90
22192;DHT22;11261;52.456;10.850;2023-08-07T07:58:38;17.10;99.90
22192;DHT22;11261;52.456;10.850;2023-08-07T08:01:08;17.20;99.90
22192;DHT22;11261;52.456;10.850;2023-08-07T08:03:36;17.20;99.90
22192;DHT22;11261;52.456;10.850;2023-08-07T08:06:04;17.20;99.90
22192;DHT22;11261;52.456;10.850;2023-08-07T08:08:33;17.00;99.90
22192;DHT22;11261;52.456;10.850;2023-08-07T08:11:01;17.00;99.90
22192;DHT22;11261;52.456;10.850;2023-08-07T08:13:30;17.00;99.90
22192;DHT22;11261;52.456;10.850;2023-08-07T08:15:59;17.00;99.90
22192;DHT22;11261;52.456;10.850;2023-08-07T08:18:28;16.90;99.90
22192;DHT22;11261;52.456;10.850;2023-08-07T08:20:56;16.90;99.90
22192;DHT22;11261;52.456;10.850;2023-08-07T08:23:24;16.80;99.90
22192;DHT22;11261;52.456;10.850;2023-08-07T08:25:53;16.90;99.90
22192;DHT22;11261;52.456;10.850;2023-08-07T08:28:21;16.80;99.90
22192;DHT22;11261;52.456;10.850;2023-08-07T08:30:51;16.90;99.90
22192;DHT22;11261;52.456;10.850;2023-08-07T08:33:21;17.00;99.90
22192;DHT22;11261;52.456;10.850;2023-08-07T08:35:49;17.20;99.90
22192;DHT22;11261;52.456;10.850;2023-08-07T08:38:18;17.40;99.90
22192;DHT22;11261;52.456;10.850;2023-08-07T08:40:47;17.70;99.90
22192;DHT22;11261;52.456;10.850;2023-08-07T08:43:16;17.80;99.90
22192;DHT22;11261;52.456;10.850;2023-08-07T08:45:45;17.70;99.90
22192;DHT22;11261;52.456;10.850;2023-08-07T08:48:19;17.50;99.90
22192;DHT22;11261;52.456;10.850;2023-08-07T08:50:52;17.40;99.90
22192;DHT22;11261;52.456;10.850;2023-08-07T08:53:20;17.50;99.90
22192;DHT22;11261;52.456;10.850;2023-08-07T08:55:49;17.60;99.90
22192;DHT22;11261;52.456;10.850;2023-08-07T08:58:20;17.80;99.90
22192;DHT22;11261;52.456;10.850;2023-08-07T09:00:48;18.20;99.90
22192;DHT22;11261;52.456;10.850;2023-08-07T09:03:18;18.40;99.90
22192;DHT22;11261;52.456;10.850;2023-08-07T09:05:47;18.80;99.90
22192;DHT22;11261;52.456;10.850;2023-08-07T09:08:19;19.20;99.90
22192;DHT22;11261;52.456;10.850;2023-08-07T09:10:47;19.20;99.90
22192;DHT22;11261;52.456;10.850;2023-08-07T09:13:18;19.30;99.90
22192;DHT22;11261;52.456;10.850;2023-08-07T09:15:50;19.10;99.90
22192;DHT22;11261;52.456;10.850;2023-08-07T09:18:19;19.40;99.90
22192;DHT22;11261;52.456;10.850;2023-08-07T09:20:47;19.40;99.90
22192;DHT22;11261;52.456;10.850;2023-08-07T09:23:17;19.20;99.90
22192;DHT22;11261;52.456;10.850;2023-08-07T09:25:46;19.30;99.90
22192;DHT22;11261;52.456;10.850;2023-08-07T09:28:14;19.30;99.90
22192;DHT22;11261;52.456;10.850;2023-08-07T09:30:42;19.10;99.90
22192;DHT22;11261;52.456;10.850;2023-08-07T09:33:12;18.80;99.90
22192;DHT22;11261;52.456;10.850;2023-08-07T09:35:40;18.50;99.90
22192;DHT22;11261;52.456;10.850;2023-08-07T09:38:08;18.40;99.90
22192;DHT22;11261;52.456;10.850;2023-08-07T09:40:37;18.20;99.90
22192;DHT22;11261;52.456;10.850;2023-08-07T09:43:06;17.90;99.90
22192;DHT22;11261;52.456;10.850;2023-08-07T09:45:35;17.80;99.90
22192;DHT22;11261;52.456;10.850;2023-08-07T09:48:05;18.10;99.90
22192;DHT22;11261;52.456;10.850;2023-08-07T09:50:34;18.40;99.90
22192;DHT22;11261;52.456;10.850;2023-08-07T09:53:02;18.30;99.90
22192;DHT22;11261;52.456;10.850;2023-08-07T09:55:30;18.40;99.90
22192;DHT22;11261;52.456;10.850;2023-08-07T09:58:01;18.60;99.90
22192;DHT22;11261;52.456;10.850;2023-08-07T10:00:33;19.00;99.90
22192;DHT22;11261;52.456;10.850;2023-08-07T10:03:03;19.10;99.90
22192;DHT22;11261;52.456;10.850;2023-08-07T10:05:32;19.10;99.90
22192;DHT22;11261;52.456;10.850;2023-08-07T10:08:01;19.10;99.90
22192;DHT22;11261;52.456;10.850;2023-08-07T10:10:32;19.00;99.90
22192;DHT22;11261;52.456;10.850;2023-08-07T10:13:03;19.10;99.90
22192;DHT22;11261;52.456;10.850;2023-08-07T10:15:32;19.40;99.90
22192;DHT22;11261;52.456;10.850;2023-08-07T10:18:01;19.60;99.90
22192;DHT22;11261;52.456;10.850;2023-08-07T10:20:31;19.80;99.90
22192;DHT22;11261;52.456;10.850;2023-08-07T10:23:03;19.60;99.90
22192;DHT22;11261;52.456;10.850;2023-08-07T10:25:33;19.70;99.90
22192;DHT22;11261;52.456;10.850;2023-08-07T10:28:05;19.90;99.90
22192;DHT22;11261;52.456;10.850;2023-08-07T10:30:34;20.20;99.90
22192;DHT22;11261;52.456;10.850;2023-08-07T10:33:03;20.10;99.90
22192;DHT22;11261;52.456;10.850;2023-08-07T10:35:34;20.30;99.90
22192;DHT22;11261;52.456;10.850;2023-08-07T10:38:06;20.00;99.90
22192;DHT22;11261;52.456;10.850;2023-08-07T10:40:58;19.90;99.90
22192;DHT22;11261;52.456;10.850;2023-08-07T10:43:29;20.10;99.90
22192;DHT22;11261;52.456;10.850;2023-08-07T10:46:05;20.00;99.90
22192;DHT22;11261;52.456;10.850;2023-08-07T10:48:41;19.60;99.90
22192;DHT22;11261;52.456;10.850;2023-08-07T10:51:12;19.00;99.90
22192;DHT22;11261;52.456;10.850;2023-08-07T10:53:42;19.10;99.90
22192;DHT22;11261;52.456;10.850;2023-08-07T10:56:15;19.40;99.90
22192;DHT22;11261;52.456;10.850;2023-08-07T10:58:50;19.70;99.90
22192;DHT22;11261;52.456;10.850;2023-08-07T11:01:21;19.70;99.90
22192;DHT22;11261;52.456;10.850;2023-08-07T11:03:51;19.80;99.90
22192;DHT22;11261;52.456;10.850;2023-08-07T11:06:24;20.20;99.90
22192;DHT22;11261;52.456;10.850;2023-08-07T11:08:53;20.00;99.90
22192;DHT22;11261;52.456;10.850;2023-08-07T11:11:22;19.60;99.90
22192;DHT22;11261;52.456;10.850;2023-08-07T11:13:51;19.60;99.90
22192;DHT22;11261;52.456;10.850;2023-08-07T11:16:20;19.40;99.90
22192;DHT22;11261;52.456;10.850;2023-08-07T11:18:49;19.20;99.90
22192;DHT22;11261;52.456;10.850;2023-08-07T11:21:18;19.10;99.90
22192;DHT22;11261;52.456;10.850;2023-08-07T11:23:47;19.00;99.90
22192;DHT22;11261;52.456;10.850;2023-08-07T11:26:16;18.70;99.90
22192;DHT22;11261;52.456;10.850;2023-08-07T11:28:49;18.10;99.90
22192;DHT22;11261;52.456;10.850;2023-08-07T11:31:19;17.60;99.90
22192;DHT22;11261;52.456;10.850;2023-08-07T11:33:50;17.70;99.90
22192;DHT22;11261;52.456;10.850;2023-08-07T11:36:18;17.60;99.90
22192;DHT22;11261;52.456;10.850;2023-08-07T11:38:46;17.80;99.90
22192;DHT22;11261;52.456;10.850;2023-08-07T11:41:16;17.70;99.90
22192;DHT22;11261;52.456;10.850;2023-08-07T11:43:44;17.20;99.90
22192;DHT22;11261;52.456;10.850;2023-08-07T11:46:13;17.10;99.90
22192;DHT22;11261;52.456;10.850;2023-08-07T11:48:44;17.10;99.90
22192;DHT22;11261;52.456;10.850;2023-08-07T11:51:13;17.00;99.90
22192;DHT22;11261;52.456;10.850;2023-08-07T11:53:42;16.90;99.90
22192;DHT22;11261;52.456;10.850;2023-08-07T11:56:11;17.00;99.90
22192;DHT22;11261;52.456;10.850;2023-08-07T11:58:42;17.30;99.90
22192;DHT22;11261;52.456;10.850;2023-08-07T12:01:14;17.60;99.90
22192;DHT22;11261;52.456;10.850;2023-08-07T12:03:53;17.60;99.90
22192;DHT22;11261;52.456;10.850;2023-08-07T12:06:23;17.50;99.90
22192;DHT22;11261;52.456;10.850;2023-08-07T12:08:54;17.70;99.90
22192;DHT22;11261;52.456;10.850;2023-08-07T12:11:23;18.00;99.90
22192;DHT22;11261;52.456;10.850;2023-08-07T12:13:52;18.20;99.90
22192;DHT22;11261;52.456;10.850;2023-08-07T12:16:20;18.30;99.90
22192;DHT22;11261;52.456;10.850;2023-08-07T12:18:50;18.50;99.90
22192;DHT22;11261;52.456;10.850;2023-08-07T12:21:21;18.80;99.90
22192;DHT22;11261;52.456;10.850;2023-08-07T12:23:54;18.90;99.90
22192;DHT22;11261;52.456;10.850;2023-08-07T12:26:23;18.90;99.90
22192;DHT22;11261;52.456;10.850;2023-08-07T12:28:52;19.30;99.90
22192;DHT22;11261;52.456;10.850;2023-08-07T12:31:20;19.50;99.90
22192;DHT22;11261;52.456;10.850;2023-08-07T12:33:49;19.70;99.90
22192;DHT22;11261;52.456;10.850;2023-08-07T12:36:20;19.50;99.90
22192;DHT22;11261;52.456;10.850;2023-08-07T12:38:48;19.00;99.90
22192;DHT22;11261;52.456;10.850;2023-08-07T12:41:17;19.10;99.90
22192;DHT22;11261;52.456;10.850;2023-08-07T12:43:48;18.90;99.90
22192;DHT22;11261;52.456;10.850;2023-08-07T12:46:16;19.30;99.90
22192;DHT22;11261;52.456;10.850;2023-08-07T12:48:47;19.40;99.90
22192;DHT22;11261;52.456;10.850;2023-08-07T12:51:17;19.40;99.90
22192;DHT22;11261;52.456;10.850;2023-08-07T12:53:46;19.50;99.90
22192;DHT22;11261;52.456;10.850;2023-08-07T12:56:15;19.50;99.90
22192;DHT22;11261;52.456;10.850;2023-08-07T12:58:43;19.70;99.90
22192;DHT22;11261;52.456;10.850;2023-08-07T13:01:13;19.80;99.90
22192;DHT22;11261;52.456;10.850;2023-08-07T13:03:41;19.60;99.90
22192;DHT22;11261;52.456;10.850;2023-08-07T13:06:09;19.70;99.90
22192;DHT22;11261;52.456;10.850;2023-08-07T13:08:39;19.20;99.90
22192;DHT22;11261;52.456;10.850;2023-08-07T13:11:09;18.40;99.90
22192;DHT22;11261;52.456;10.850;2023-08-07T13:13:37;18.90;99.90
22192;DHT22;11261;52.456;10.850;2023-08-07T13:16:06;19.20;99.90
22192;DHT22;11261;52.456;10.850;2023-08-07T13:18:35;19.30;99.90
22192;DHT22;11261;52.456;10.850;2023-08-07T13:21:03;19.40;99.90
22192;DHT22;11261;52.456;10.850;2023-08-07T13:23:31;19.50;99.90
22192;DHT22;11261;52.456;10.850;2023-08-07T13:26:00;19.80;99.90
22192;DHT22;11261;52.456;10.850;2023-08-07T13:28:30;20.00;99.90
22192;DHT22;11261;52.456;10.850;2023-08-07T13:30:58;19.90;99.90
22192;DHT22;11261;52.456;10.850;2023-08-07T13:33:26;19.70;99.90
22192;DHT22;11261;52.456;10.850;2023-08-07T13:35:55;19.70;99.90
22192;DHT22;11261;52.456;10.850;2023-08-07T13:38:23;19.90;99.90
22192;DHT22;11261;52.456;10.850;2023-08-07T13:40:51;19.70;99.90
22192;DHT22;11261;52.456;10.850;2023-08-07T13:43:20;19.50;99.90
22192;DHT22;11261;52.456;10.850;2023-08-07T13:45:49;19.20;99.90
22192;DHT22;11261;52.456;10.850;2023-08-07T13:48:18;19.00;99.90
22192;DHT22;11261;52.456;10.850;2023-08-07T13:50:46;18.90;99.90
22192;DHT22;11261;52.456;10.850;2023-08-07T13:53:15;18.80;99.90
22192;DHT22;11261;52.456;10.850;2023-08-07T13:55:44;19.00;99.90
22192;DHT22;11261;52.456;10.850;2023-08-07T13:58:12;19.10;99.90
22192;DHT22;11261;52.456;10.850;2023-08-07T14:00:42;19.10;99.90
22192;DHT22;11261;52.456;10.850;2023-08-07T14:03:12;19.10;99.90
22192;DHT22;11261;52.456;10.850;2023-08-07T14:05:41;19.60;99.90
22192;DHT22;11261;52.456;10.850;2023-08-07T14:08:09;19.90;99.90
22192;DHT22;11261;52.456;10.850;2023-08-07T14:10:38;19.90;99.90
22192;DHT22;11261;52.456;10.850;2023-08-07T14:13:08;19.90;99.90
22192;DHT22;11261;52.456;10.850;2023-08-07T14:15:38;19.90;99.90
22192;DHT22;11261;52.456;10.850;2023-08-07T14:18:07;19.90;99.90
22192;DHT22;11261;52.456;10.850;2023-08-07T14:20:36;20.10;99.90
22192;DHT22;11261;52.456;10.850;2023-08-07T14:23:25;20.10;99.90
22192;DHT22;11261;52.456;10.850;2023-08-07T14:25:56;20.00;99.90
22192;DHT22;11261;52.456;10.850;2023-08-07T14:28:24;20.10;99.90
22192;DHT22;11261;52.456;10.850;2023-08-07T14:30:57;19.90;99.90
22192;DHT22;11261;52.456;10.850;2023-08-07T14:33:28;19.70;99.90
22192;DHT22;11261;52.456;10.850;2023-08-07T14:35:57;19.70;99.90
22192;DHT22;11261;52.456;10.850;2023-08-07T14:38:27;19.50;99.90
22192;DHT22;11261;52.456;10.850;2023-08-07T14:40:55;19.60;99.90
22192;DHT22;11261;52.456;10.850;2023-08-07T14:43:24;19.60;99.90
22192;DHT22;11261;52.456;10.850;2023-08-07T14:45:52;19.50;99.90
22192;DHT22;11261;52.456;10.850;2023-08-07T14:48:21;19.40;99.90
22192;DHT22;11261;52.456;10.850;2023-08-07T14:50:50;19.50;99.90
22192;DHT22;11261;52.456;10.850;2023-08-07T14:53:19;19.40;99.90
22192;DHT22;11261;52.456;10.850;2023-08-07T14:55:47;19.40;99.90
22192;DHT22;11261;52.456;10.850;2023-08-07T14:58:16;19.00;99.90
22192;DHT22;11261;52.456;10.850;2023-08-07T15:00:44;18.70;99.90
22192;DHT22;11261;52.456;10.850;2023-08-07T15:03:12;18.40;99.90
22192;DHT22;11261;52.456;10.850;2023-08-07T15:05:41;18.10;99.90
22192;DHT22;11261;52.456;10.850;2023-08-07T15:08:09;18.10;99.90
22192;DHT22;11261;52.456;10.850;2023-08-07T15:10:39;18.40;99.90
22192;DHT22;11261;52.456;10.850;2023-08-07T15:13:08;18.50;99.90
22192;DHT22;11261;52.456;10.850;2023-08-07T15:15:36;18.50;99.90
22192;DHT22;11261;52.456;10.850;2023-08-07T15:18:04;18.60;99.90
22192;DHT22;11261;52.456;10.850;2023-08-07T15:20:34;19.10;99.90
22192;DHT22;11261;52.456;10.850;2023-08-07T15:23:03;18.90;99.90
22192;DHT22;11261;52.456;10.850;2023-08-07T15:25:31;18.90;99.90
22192;DHT22;11261;52.456;10.850;2023-08-07T15:28:00;18.90;99.90